createdAt,value
2022-09-17T00:01:08.147Z,8.99
2022-09-17T00:03:35.555Z,9.09
2022-09-17T00:06:06.891Z,9.18
2022-09-17T00:08:35.425Z,9.21
2022-09-17T00:11:09.898Z,9.35
2022-09-17T00:13:37.151Z,9.45
2022-09-17T00:16:04.135Z,9.45
2022-09-17T00:18:30.840Z,9.51
2022-09-17T00:20:57.558Z,9.56
2022-09-17T00:23:24.540Z,9.61
2022-09-17T00:25:51.314Z,9.64
2022-09-17T00:28:18.431Z,9.68
2022-09-17T00:30:46.581Z,9.74
2022-09-17T00:33:18.089Z,9.79
2022-09-17T00:35:45.162Z,9.77
2022-09-17T00:38:12.027Z,9.74
2022-09-17T00:40:39.136Z,9.76
2022-09-17T00:43:12.359Z,9.74
2022-09-17T00:45:40.038Z,9.71
2022-09-17T00:48:07.632Z,9.71
2022-09-17T00:50:41.461Z,9.76
2022-09-17T00:53:13.699Z,9.86
2022-09-17T00:55:44.436Z,9.92
2022-09-17T00:58:13.247Z,10.00
2022-09-17T01:00:40.492Z,10.07
2022-09-17T01:03:07.592Z,10.14
2022-09-17T01:06:11.889Z,10.24
2022-09-17T01:08:48.944Z,10.30
2022-09-17T01:11:39.930Z,10.37
2022-09-17T01:14:25.447Z,10.45
2022-09-17T01:17:01.124Z,10.50
2022-09-17T01:19:55.815Z,10.57
2022-09-17T01:22:46.151Z,10.61
2022-09-17T01:25:12.800Z,10.64
2022-09-17T01:28:20.768Z,10.69
2022-09-17T01:31:17.602Z,10.70
2022-09-17T01:34:01.707Z,10.73
2022-09-17T01:37:01.263Z,10.78
2022-09-17T01:39:58.150Z,10.79
2022-09-17T01:42:38.863Z,10.80
2022-09-17T01:45:23.617Z,10.82
2022-09-17T01:47:55.068Z,10.81
2022-09-17T01:50:33.556Z,10.84
2022-09-17T01:53:02.972Z,10.86
2022-09-17T01:55:33.776Z,10.89
2022-09-17T01:58:20.680Z,10.90
2022-09-17T02:00:55.615Z,10.93
2022-09-17T02:03:30.549Z,10.93
2022-09-17T02:06:05.691Z,10.97
2022-09-17T02:08:58.093Z,10.99
2022-09-17T02:11:25.116Z,11.02
2022-09-17T02:14:00.955Z,11.04
2022-09-17T02:16:31.095Z,11.05
2022-09-17T02:19:06.947Z,11.08
2022-09-17T02:21:47.388Z,11.10
2022-09-17T02:24:36.823Z,11.11
2022-09-17T02:27:17.710Z,11.13
2022-09-17T02:29:45.174Z,11.14
2022-09-17T02:32:12.989Z,11.17
2022-09-17T02:34:40.557Z,11.19
2022-09-17T02:37:08.057Z,11.18
2022-09-17T02:39:34.943Z,11.20
2022-09-17T02:42:10.455Z,11.19
2022-09-17T02:44:56.538Z,11.17
2022-09-17T02:47:38.399Z,11.14
2022-09-17T02:50:23.528Z,11.13
2022-09-17T02:53:23.762Z,11.11
2022-09-17T02:56:13.646Z,11.15
2022-09-17T02:58:59.424Z,11.13
2022-09-17T03:01:35.840Z,11.16
2022-09-17T03:04:05.314Z,11.16
2022-09-17T03:06:32.353Z,11.16
2022-09-17T03:08:59.095Z,11.17
2022-09-17T03:11:25.833Z,11.18
2022-09-17T03:13:52.704Z,11.27
2022-09-17T03:16:19.438Z,11.31
2022-09-17T03:18:46.289Z,11.33
2022-09-17T03:21:13.003Z,11.38
2022-09-17T03:23:39.937Z,11.40
2022-09-17T03:26:06.928Z,11.41
2022-09-17T03:28:33.965Z,11.46
2022-09-17T03:31:00.767Z,11.49
2022-09-17T03:33:27.592Z,11.50
2022-09-17T03:35:54.323Z,11.55
2022-09-17T03:38:21.237Z,11.58
2022-09-17T03:41:07.189Z,11.62
2022-09-17T03:43:34.667Z,11.63
2022-09-17T03:46:01.759Z,11.66
2022-09-17T03:48:29.668Z,11.70
2022-09-17T03:50:57.023Z,11.71
2022-09-17T03:53:23.986Z,11.71
2022-09-17T03:55:50.784Z,11.77
2022-09-17T03:58:17.497Z,11.79
2022-09-17T04:00:44.544Z,11.81
2022-09-17T04:03:11.293Z,11.86
2022-09-17T04:05:38.174Z,11.91
2022-09-17T04:08:05.026Z,11.95
2022-09-17T04:10:31.743Z,12.00
2022-09-17T04:12:58.454Z,12.02
2022-09-17T04:15:25.377Z,12.06
2022-09-17T04:17:56.602Z,12.11
2022-09-17T04:20:27.374Z,12.14
2022-09-17T04:22:54.477Z,12.16
2022-09-17T04:25:21.273Z,12.20
2022-09-17T04:27:48.092Z,12.25
2022-09-17T04:30:15.024Z,12.30
2022-09-17T04:32:43.063Z,12.36
2022-09-17T04:35:10.079Z,12.44
2022-09-17T04:37:37.263Z,12.52
2022-09-17T04:40:07.878Z,12.63
2022-09-17T04:42:35.072Z,12.72
2022-09-17T04:45:01.872Z,12.79
2022-09-17T04:47:28.550Z,12.85
2022-09-17T04:49:55.246Z,12.91
2022-09-17T04:52:21.890Z,12.92
2022-09-17T04:54:48.663Z,12.95
2022-09-17T04:57:15.448Z,12.97
2022-09-17T04:59:42.532Z,12.98
2022-09-17T05:02:09.281Z,12.98
2022-09-17T05:04:36.075Z,12.99
2022-09-17T05:07:02.918Z,13.01
2022-09-17T05:09:29.626Z,13.05
2022-09-17T05:11:56.344Z,13.07
2022-09-17T05:14:23.228Z,13.09
2022-09-17T05:16:49.934Z,13.13
2022-09-17T05:19:17.466Z,13.20
2022-09-17T05:21:44.297Z,13.24
2022-09-17T05:24:11.039Z,13.29
2022-09-17T05:26:37.826Z,13.37
2022-09-17T05:29:04.861Z,13.45
2022-09-17T05:31:31.785Z,13.57
2022-09-17T05:33:59.040Z,13.70
2022-09-17T05:36:25.771Z,13.82
2022-09-17T05:38:52.464Z,13.93
2022-09-17T05:41:19.255Z,13.99
2022-09-17T05:43:46.130Z,14.03
2022-09-17T05:46:13.004Z,14.10
2022-09-17T05:48:39.720Z,14.22
2022-09-17T05:51:06.431Z,14.31
2022-09-17T05:53:33.228Z,14.44
2022-09-17T05:56:00.241Z,14.52
2022-09-17T05:58:27.305Z,14.58
2022-09-17T06:00:54.038Z,14.66
2022-09-17T06:03:22.710Z,14.72
2022-09-17T06:06:01.158Z,14.78
2022-09-17T06:08:29.044Z,14.80
2022-09-17T06:10:59.088Z,14.87
2022-09-17T06:13:29.025Z,14.92
2022-09-17T06:15:55.821Z,14.95
2022-09-17T06:18:22.713Z,15.00
2022-09-17T06:20:57.182Z,15.05
2022-09-17T06:23:24.849Z,15.10
2022-09-17T06:26:01.550Z,15.18
2022-09-17T06:28:28.678Z,15.07
2022-09-17T06:30:57.294Z,14.25
2022-09-17T06:33:24.285Z,14.27
2022-09-17T06:36:00.813Z,14.61
2022-09-17T06:38:28.901Z,14.55
2022-09-17T06:40:55.988Z,14.55
2022-09-17T06:43:23.421Z,14.52
2022-09-17T06:45:54.360Z,14.66
2022-09-17T06:48:21.977Z,14.84
2022-09-17T06:50:49.430Z,15.08
2022-09-17T06:53:16.339Z,15.01
2022-09-17T06:55:43.723Z,15.35
2022-09-17T06:58:10.413Z,15.71
2022-09-17T07:00:37.127Z,15.86
2022-09-17T07:03:04.010Z,16.05
2022-09-17T07:05:32.852Z,16.05
2022-09-17T07:08:03.249Z,16.26
2022-09-17T07:10:31.017Z,16.13
2022-09-17T07:12:59.049Z,16.23
2022-09-17T07:15:25.944Z,16.26
2022-09-17T07:17:52.969Z,16.25
2022-09-17T07:20:19.995Z,16.28
2022-09-17T07:22:54.839Z,16.55
2022-09-17T07:25:21.559Z,16.61
2022-09-17T07:27:48.321Z,16.26
2022-09-17T07:30:15.533Z,16.22
2022-09-17T07:32:42.363Z,16.24
2022-09-17T07:35:09.302Z,16.18
2022-09-17T07:37:36.001Z,16.25
2022-09-17T07:40:03.203Z,16.22
2022-09-17T07:42:29.965Z,16.48
2022-09-17T07:45:01.836Z,16.57
2022-09-17T07:47:29.163Z,16.64
2022-09-17T07:49:56.064Z,16.65
2022-09-17T07:52:22.803Z,16.67
2022-09-17T07:54:49.492Z,16.85
2022-09-17T07:57:16.403Z,16.92
2022-09-17T07:59:43.133Z,16.95
2022-09-17T08:02:13.808Z,16.92
2022-09-17T08:04:44.026Z,17.06
2022-09-17T08:07:14.133Z,17.07
2022-09-17T08:09:41.005Z,17.21
2022-09-17T08:12:08.056Z,17.16
2022-09-17T08:14:34.862Z,17.33
2022-09-17T08:17:01.599Z,17.58
2022-09-17T08:19:31.198Z,17.68
2022-09-17T08:21:57.939Z,17.82
2022-09-17T08:24:24.811Z,17.70
2022-09-17T08:26:51.935Z,17.87
2022-09-17T08:29:19.046Z,18.15
2022-09-17T08:31:45.881Z,18.10
2022-09-17T08:34:13.422Z,18.21
2022-09-17T08:36:40.251Z,18.22
2022-09-17T08:39:07.171Z,18.45
2022-09-17T08:41:39.898Z,18.82
2022-09-17T08:44:15.899Z,19.24
2022-09-17T08:46:52.318Z,19.64
2022-09-17T08:49:34.105Z,20.05
2022-09-17T08:52:30.098Z,20.80
2022-09-17T08:55:38.184Z,21.47
2022-09-17T08:58:19.979Z,21.69
2022-09-17T09:00:54.054Z,22.05
2022-09-17T09:03:26.672Z,22.09
2022-09-17T09:05:53.404Z,22.05
2022-09-17T09:08:32.808Z,21.99
2022-09-17T09:11:02.890Z,21.91
2022-09-17T09:13:43.088Z,21.85
2022-09-17T09:16:19.564Z,21.75
2022-09-17T09:18:51.451Z,21.67
2022-09-17T09:21:28.374Z,21.53
2022-09-17T09:23:58.627Z,21.46
2022-09-17T09:26:40.483Z,21.35
2022-09-17T09:29:14.567Z,21.24
2022-09-17T09:31:59.745Z,21.15
2022-09-17T09:34:28.872Z,21.01
2022-09-17T09:37:12.722Z,20.70
2022-09-17T09:39:45.702Z,20.36
2022-09-17T09:42:34.728Z,20.06
2022-09-17T09:45:39.890Z,19.78
2022-09-17T09:48:23.168Z,19.54
2022-09-17T09:51:08.736Z,19.37
2022-09-17T09:53:44.461Z,19.25
2022-09-17T09:56:29.549Z,19.24
2022-09-17T09:58:56.285Z,19.24
2022-09-17T10:01:27.731Z,19.22
2022-09-17T10:03:58.242Z,19.18
2022-09-17T10:06:29.228Z,19.07
2022-09-17T10:08:55.950Z,18.91
2022-09-17T10:11:28.609Z,18.73
2022-09-17T10:14:25.656Z,18.66
2022-09-17T10:17:15.769Z,18.58
2022-09-17T10:19:43.623Z,18.51
2022-09-17T10:22:26.097Z,18.40
2022-09-17T10:24:55.458Z,18.24
2022-09-17T10:27:24.492Z,18.13
2022-09-17T10:30:00.716Z,18.05
2022-09-17T10:32:27.438Z,17.96
2022-09-17T10:35:05.804Z,17.96
2022-09-17T10:37:55.002Z,17.92
2022-09-17T10:40:21.787Z,17.63
2022-09-17T10:42:50.750Z,17.30
2022-09-17T10:45:31.608Z,16.96
2022-09-17T10:48:00.215Z,16.74
2022-09-17T10:50:32.163Z,16.59
2022-09-17T10:53:06.096Z,16.42
2022-09-17T10:55:43.245Z,16.29
2022-09-17T10:58:51.486Z,16.24
2022-09-17T11:02:04.298Z,16.20
2022-09-17T11:05:08.205Z,16.23
2022-09-17T11:08:12.478Z,16.18
2022-09-17T11:10:43.434Z,16.15
2022-09-17T11:13:29.107Z,16.18
2022-09-17T11:16:17.679Z,16.22
2022-09-17T11:19:10.539Z,16.14
2022-09-17T11:22:10.142Z,16.05
2022-09-17T11:24:50.810Z,16.01
2022-09-17T11:27:37.720Z,15.98
2022-09-17T11:30:15.414Z,16.05
2022-09-17T11:33:13.318Z,16.23
2022-09-17T11:35:47.011Z,16.35
2022-09-17T11:38:22.778Z,16.48
2022-09-17T11:41:04.816Z,16.59
2022-09-17T11:43:43.210Z,16.61
2022-09-17T11:46:29.409Z,16.79
2022-09-17T11:49:12.703Z,17.03
2022-09-17T11:52:09.126Z,17.50
2022-09-17T11:54:51.171Z,17.94
2022-09-17T11:57:32.946Z,18.26
2022-09-17T12:00:14.246Z,18.36
2022-09-17T12:02:59.888Z,18.29
2022-09-17T12:05:50.122Z,18.12
2022-09-17T12:08:16.752Z,18.01
2022-09-17T12:11:14.705Z,17.98
2022-09-17T12:13:49.303Z,17.98
2022-09-17T12:16:19.166Z,18.07
2022-09-17T12:19:07.785Z,17.95
2022-09-17T12:21:45.732Z,17.53
2022-09-17T12:24:26.004Z,17.33
2022-09-17T12:27:14.118Z,17.26
2022-09-17T12:29:47.011Z,17.42
2022-09-17T12:32:41.593Z,17.58
2022-09-17T12:35:53.052Z,17.52
2022-09-17T12:38:35.372Z,17.66
2022-09-17T12:41:24.812Z,17.90
2022-09-17T12:44:22.503Z,18.23
2022-09-17T12:47:21.228Z,18.70
2022-09-17T12:49:55.748Z,19.15
2022-09-17T12:52:37.770Z,19.43
2022-09-17T12:55:19.737Z,19.76
2022-09-17T12:57:49.381Z,20.02
2022-09-17T13:00:17.062Z,20.20
2022-09-17T13:02:55.932Z,20.35
2022-09-17T13:05:25.620Z,20.38
2022-09-17T13:08:12.686Z,20.44
2022-09-17T13:11:10.421Z,20.62
2022-09-17T13:13:37.236Z,20.78
2022-09-17T13:16:16.916Z,20.90
2022-09-17T13:19:12.304Z,21.02
2022-09-17T13:21:51.571Z,21.11
2022-09-17T13:24:22.637Z,21.05
2022-09-17T13:26:49.464Z,21.01
2022-09-17T13:29:54.849Z,20.81
2022-09-17T13:32:49.329Z,20.35
2022-09-17T13:35:16.042Z,20.15
2022-09-17T13:37:45.296Z,19.98
2022-09-17T13:40:34.536Z,19.77
2022-09-17T13:43:04.055Z,19.58
2022-09-17T13:45:32.131Z,19.38
2022-09-17T13:48:02.372Z,19.13
2022-09-17T13:50:33.392Z,18.89
2022-09-17T13:53:07.348Z,18.65
2022-09-17T13:55:52.443Z,18.47
2022-09-17T13:58:19.062Z,18.29
2022-09-17T14:01:05.279Z,18.19
2022-09-17T14:03:34.182Z,18.10
2022-09-17T14:06:11.056Z,18.06
2022-09-17T14:08:43.857Z,18.02
2022-09-17T14:11:22.617Z,17.86
2022-09-17T14:13:53.211Z,17.83
2022-09-17T14:16:35.874Z,17.74
2022-09-17T14:19:38.813Z,17.81
2022-09-17T14:22:05.862Z,17.76
2022-09-17T14:24:44.619Z,17.65
2022-09-17T14:27:14.382Z,17.62
2022-09-17T14:30:01.211Z,17.61
2022-09-17T14:32:34.292Z,17.60
2022-09-17T14:35:04.134Z,17.50
2022-09-17T14:37:33.352Z,17.50
2022-09-17T14:40:00.164Z,17.45
2022-09-17T14:42:35.814Z,17.43
2022-09-17T14:45:06.470Z,17.39
2022-09-17T14:47:33.250Z,17.28
2022-09-17T14:50:23.852Z,17.11
2022-09-17T14:52:54.678Z,17.07
2022-09-17T14:55:24.211Z,17.03
2022-09-17T14:57:54.179Z,16.80
2022-09-17T15:00:24.484Z,16.78
2022-09-17T15:02:59.731Z,16.83
2022-09-17T15:05:33.875Z,16.84
2022-09-17T15:08:11.406Z,16.74
2022-09-17T15:10:47.168Z,16.66
2022-09-17T15:13:27.182Z,16.56
2022-09-17T15:16:03.809Z,16.50
2022-09-17T15:18:55.072Z,16.40
2022-09-17T15:21:29.567Z,16.32
2022-09-17T15:24:07.346Z,16.23
2022-09-17T15:26:40.114Z,16.18
2022-09-17T15:29:06.921Z,16.11
2022-09-17T15:31:36.769Z,16.02
2022-09-17T15:34:03.933Z,15.95
2022-09-17T15:36:31.821Z,15.84
2022-09-17T15:38:59.186Z,15.73
2022-09-17T15:41:36.126Z,15.61
2022-09-17T15:44:32.070Z,15.46
2022-09-17T15:47:39.184Z,15.34
2022-09-17T15:50:14.729Z,15.20
2022-09-17T15:52:42.348Z,15.15
2022-09-17T15:55:31.035Z,15.06
2022-09-17T15:57:59.661Z,14.99
2022-09-17T16:00:26.472Z,14.93
2022-09-17T16:02:54.338Z,14.87
2022-09-17T16:05:23.870Z,14.81
2022-09-17T16:07:51.226Z,14.74
2022-09-17T16:10:18.297Z,14.71
2022-09-17T16:12:45.385Z,14.67
2022-09-17T16:15:13.067Z,14.62
2022-09-17T16:17:44.813Z,14.56
2022-09-17T16:20:21.968Z,14.51
2022-09-17T16:22:49.104Z,14.39
2022-09-17T16:25:23.236Z,14.36
2022-09-17T16:28:28.564Z,14.30
2022-09-17T16:30:55.359Z,14.28
2022-09-17T16:33:22.239Z,14.29
2022-09-17T16:35:49.136Z,14.30
2022-09-17T16:38:15.977Z,14.30
2022-09-17T16:40:45.015Z,14.28
2022-09-17T16:43:11.791Z,14.27
2022-09-17T16:45:38.551Z,14.22
2022-09-17T16:48:06.753Z,14.23
2022-09-17T16:50:34.414Z,14.20
2022-09-17T16:53:04.895Z,14.24
2022-09-17T16:55:32.274Z,14.21
2022-09-17T16:57:59.164Z,14.23
2022-09-17T17:00:25.941Z,14.23
2022-09-17T17:02:57.508Z,14.20
2022-09-17T17:05:26.116Z,14.22
2022-09-17T17:07:55.274Z,14.21
2022-09-17T17:10:23.206Z,14.18
2022-09-17T17:12:50.076Z,14.16
2022-09-17T17:15:17.076Z,14.19
2022-09-17T17:17:43.865Z,14.18
2022-09-17T17:20:13.545Z,14.18
2022-09-17T17:22:44.038Z,14.14
2022-09-17T17:25:13.436Z,14.13
2022-09-17T17:27:40.835Z,14.13
2022-09-17T17:30:09.402Z,14.12
2022-09-17T17:32:37.181Z,14.11
2022-09-17T17:35:06.123Z,14.09
2022-09-17T17:37:32.878Z,14.10
2022-09-17T17:40:00.137Z,14.10
2022-09-17T17:42:26.981Z,14.07
2022-09-17T17:44:55.579Z,14.05
2022-09-17T17:47:22.235Z,14.04
2022-09-17T17:49:49.040Z,14.04
2022-09-17T17:52:15.715Z,14.03
2022-09-17T17:54:42.489Z,14.03
2022-09-17T17:57:10.440Z,14.02
2022-09-17T17:59:37.164Z,14.01
2022-09-17T18:02:04.201Z,14.00
2022-09-17T18:04:31.053Z,14.00
2022-09-17T18:06:57.765Z,13.98
2022-09-17T18:09:24.903Z,13.98
2022-09-17T18:11:51.553Z,13.99
2022-09-17T18:14:18.301Z,13.99
2022-09-17T18:16:44.994Z,13.96
2022-09-17T18:19:12.144Z,13.97
2022-09-17T18:21:38.976Z,13.97
2022-09-17T18:24:05.882Z,13.97
2022-09-17T18:26:32.727Z,13.98
2022-09-17T18:29:01.443Z,13.98
2022-09-17T18:31:33.224Z,13.99
2022-09-17T18:34:04.958Z,13.98
2022-09-17T18:36:34.733Z,13.97
2022-09-17T18:41:52.834Z,13.95
2022-09-17T18:44:21.841Z,13.96
2022-09-17T18:46:50.240Z,13.95
2022-09-17T18:49:17.516Z,13.94
2022-09-17T18:51:44.286Z,13.93
2022-09-17T18:54:12.787Z,13.93
2022-09-17T18:56:41.692Z,13.93
2022-09-17T18:59:09.784Z,13.93
2022-09-17T19:01:36.640Z,13.94
2022-09-17T19:04:03.900Z,13.94
2022-09-17T19:06:32.235Z,13.94
2022-09-17T19:09:01.234Z,13.95
2022-09-17T19:11:28.458Z,13.95
2022-09-17T19:13:55.547Z,13.95
2022-09-17T19:16:22.724Z,13.94
2022-09-17T19:18:49.717Z,13.94
2022-09-17T19:21:21.775Z,13.90
2022-09-17T19:23:50.625Z,13.90
2022-09-17T19:26:20.433Z,13.86
2022-09-17T19:28:48.049Z,13.84
2022-09-17T19:31:17.175Z,13.86
2022-09-17T19:33:44.784Z,13.89
2022-09-17T19:36:17.080Z,13.89
2022-09-17T19:38:44.594Z,13.89
2022-09-17T19:41:13.172Z,13.83
2022-09-17T19:43:40.668Z,13.82
2022-09-17T19:46:11.512Z,13.83
2022-09-17T19:48:43.740Z,13.81
2022-09-17T19:51:10.561Z,13.77
2022-09-17T19:53:37.310Z,13.75
2022-09-17T19:56:04.847Z,13.76
2022-09-17T19:58:31.498Z,13.73
2022-09-17T20:00:59.276Z,13.72
2022-09-17T20:03:26.757Z,13.75
2022-09-17T20:05:59.627Z,13.77
2022-09-17T20:08:26.624Z,13.79
2022-09-17T20:10:54.459Z,13.75
2022-09-17T20:13:21.920Z,13.74
2022-09-17T20:15:48.999Z,13.76
2022-09-17T20:18:18.661Z,13.77
2022-09-17T20:20:48.021Z,13.76
2022-09-17T20:23:14.800Z,13.78
2022-09-17T20:25:41.466Z,13.78
2022-09-17T20:28:08.387Z,13.78
2022-09-17T20:30:35.067Z,13.77
2022-09-17T20:33:01.799Z,13.78
2022-09-17T20:35:28.503Z,13.77
2022-09-17T20:38:51.552Z,13.78
2022-09-17T20:40:41.960Z,13.76
2022-09-17T20:43:08.696Z,13.76
2022-09-17T20:45:35.434Z,13.77
2022-09-17T20:48:02.447Z,13.77
2022-09-17T20:50:29.302Z,13.77
2022-09-17T20:52:56.463Z,13.77
2022-09-17T20:55:23.316Z,13.77
2022-09-17T20:57:53.619Z,13.77
2022-09-17T21:00:21.499Z,13.77
2022-09-17T21:02:56.396Z,13.76
2022-09-17T21:05:23.208Z,13.76
2022-09-17T21:07:49.943Z,13.76
2022-09-17T21:10:16.701Z,13.77
2022-09-17T21:12:43.368Z,13.79
2022-09-17T21:15:10.495Z,13.78
2022-09-17T21:17:40.674Z,13.79
2022-09-17T21:20:07.995Z,13.79
2022-09-17T21:22:34.733Z,13.79
2022-09-17T21:25:01.582Z,13.81
2022-09-17T21:27:31.581Z,13.81
2022-09-17T21:29:58.724Z,13.81
2022-09-17T21:32:25.489Z,13.81
2022-09-17T21:34:52.188Z,13.81
2022-09-17T21:37:19.036Z,13.82
2022-09-17T21:39:45.723Z,13.83
2022-09-17T21:42:12.420Z,13.82
2022-09-17T21:44:39.201Z,13.79
2022-09-17T21:47:09.165Z,13.78
2022-09-17T21:49:40.145Z,13.79
2022-09-17T21:52:06.818Z,13.72
2022-09-17T21:54:33.534Z,13.74
2022-09-17T21:57:00.201Z,13.70
2022-09-17T21:59:27.319Z,13.68
2022-09-17T22:01:54.050Z,13.64
2022-09-17T22:04:26.099Z,13.68
2022-09-17T22:06:53.406Z,13.67
2022-09-17T22:09:25.445Z,13.66
2022-09-17T22:11:53.389Z,13.67
2022-09-17T22:14:24.987Z,13.65
2022-09-17T22:16:54.529Z,13.62
2022-09-17T22:19:23.033Z,13.54
2022-09-17T22:21:52.421Z,13.43
2022-09-17T22:24:21.137Z,13.42
2022-09-17T22:26:55.754Z,13.41
2022-09-17T22:29:24.795Z,13.44
2022-09-17T22:31:51.621Z,13.42
2022-09-17T22:34:22.993Z,13.38
2022-09-17T22:36:50.049Z,13.36
2022-09-17T22:39:19.097Z,13.35
2022-09-17T22:41:46.312Z,13.34
2022-09-17T22:44:21.874Z,13.33
2022-09-17T22:46:51.345Z,13.28
2022-09-17T22:49:19.180Z,13.29
2022-09-17T22:51:47.218Z,13.24
2022-09-17T22:54:15.889Z,13.30
2022-09-17T22:56:43.940Z,13.28
2022-09-17T22:59:11.154Z,13.24
2022-09-17T23:01:39.750Z,13.27
2022-09-17T23:04:06.761Z,13.25
2022-09-17T23:06:36.538Z,13.30
2022-09-17T23:09:04.001Z,13.29
2022-09-17T23:11:33.970Z,13.34
2022-09-17T23:14:03.105Z,13.40
2022-09-17T23:16:39.762Z,13.43
2022-09-17T23:19:06.630Z,13.35
2022-09-17T23:21:33.495Z,13.41
2022-09-17T23:24:00.587Z,13.44
2022-09-17T23:26:27.726Z,13.55
2022-09-17T23:28:54.495Z,13.44
2022-09-17T23:31:26.901Z,13.53
2022-09-17T23:33:55.538Z,13.62
2022-09-17T23:36:28.271Z,13.53
2022-09-17T23:38:56.281Z,13.54
2022-09-17T23:41:25.522Z,13.54
2022-09-17T23:43:54.675Z,13.50
2022-09-17T23:46:23.294Z,13.51
2022-09-17T23:48:51.659Z,13.47
2022-09-17T23:51:18.456Z,13.52
2022-09-17T23:53:45.881Z,13.44
2022-09-17T23:56:15.672Z,13.30
2022-09-17T23:58:42.432Z,13.32
